sensor_id;sensor_type;location;lat;lon;timestamp;P1;durP1;ratioP1;P2;durP2;ratioP2
69981;SDS011;57319;56.274;43.980;2023-05-16T00:01:50;22.17;;;9.00;;
69981;SDS011;57319;56.274;43.980;2023-05-16T00:04:15;15.75;;;7.30;;
69981;SDS011;57319;56.274;43.980;2023-05-16T00:06:41;17.38;;;7.80;;
69981;SDS011;57319;56.274;43.980;2023-05-16T00:09:07;18.48;;;8.02;;
69981;SDS011;57319;56.274;43.980;2023-05-16T00:11:33;20.65;;;7.88;;
69981;SDS011;57319;56.274;43.980;2023-05-16T00:13:59;16.02;;;7.75;;
69981;SDS011;57319;56.274;43.980;2023-05-16T00:16:25;20.30;;;7.95;;
69981;SDS011;57319;56.274;43.980;2023-05-16T00:18:53;12.40;;;6.72;;
69981;SDS011;57319;56.274;43.980;2023-05-16T00:21:21;17.55;;;7.03;;
69981;SDS011;57319;56.274;43.980;2023-05-16T00:23:46;21.23;;;7.45;;
69981;SDS011;57319;56.274;43.980;2023-05-16T00:26:12;10.13;;;6.97;;
69981;SDS011;57319;56.274;43.980;2023-05-16T00:28:37;18.60;;;7.30;;
69981;SDS011;57319;56.274;43.980;2023-05-16T00:31:03;12.30;;;5.95;;
69981;SDS011;57319;56.274;43.980;2023-05-16T00:33:29;14.63;;;7.25;;
69981;SDS011;57319;56.274;43.980;2023-05-16T00:35:55;9.90;;;6.40;;
69981;SDS011;57319;56.274;43.980;2023-05-16T00:38:21;8.68;;;6.00;;
69981;SDS011;57319;56.274;43.980;2023-05-16T00:40:46;7.40;;;5.55;;
69981;SDS011;57319;56.274;43.980;2023-05-16T00:43:12;8.60;;;5.40;;
69981;SDS011;57319;56.274;43.980;2023-05-16T00:45:38;5.95;;;4.50;;
69981;SDS011;57319;56.274;43.980;2023-05-16T00:48:03;7.82;;;4.97;;
69981;SDS011;57319;56.274;43.980;2023-05-16T00:50:29;4.30;;;3.90;;
69981;SDS011;57319;56.274;43.980;2023-05-16T00:52:57;9.35;;;4.63;;
69981;SDS011;57319;56.274;43.980;2023-05-16T00:55:23;6.68;;;4.00;;
69981;SDS011;57319;56.274;43.980;2023-05-16T00:57:49;4.70;;;3.80;;
69981;SDS011;57319;56.274;43.980;2023-05-16T01:00:14;14.65;;;4.30;;
69981;SDS011;57319;56.274;43.980;2023-05-16T01:02:43;3.58;;;2.80;;
69981;SDS011;57319;56.274;43.980;2023-05-16T01:05:11;1.90;;;1.67;;
69981;SDS011;57319;56.274;43.980;2023-05-16T01:07:37;7.50;;;3.10;;
69981;SDS011;57319;56.274;43.980;2023-05-16T01:10:03;2.65;;;2.22;;
69981;SDS011;57319;56.274;43.980;2023-05-16T01:13:14;4.35;;;3.10;;
69981;SDS011;57319;56.274;43.980;2023-05-16T01:15:34;18.40;;;2.75;;
69981;SDS011;57319;56.274;43.980;2023-05-16T01:18:27;4.93;;;1.33;;
69981;SDS011;57319;56.274;43.980;2023-05-16T01:28:46;4.57;;;1.88;;
69981;SDS011;57319;56.274;43.980;2023-05-16T01:31:13;6.90;;;1.40;;
69981;SDS011;57319;56.274;43.980;2023-05-16T01:33:40;1.10;;;1.10;;
69981;SDS011;57319;56.274;43.980;2023-05-16T01:36:13;7.55;;;1.10;;
69981;SDS011;57319;56.274;43.980;2023-05-16T01:38:58;0.82;;;0.82;;
69981;SDS011;57319;56.274;43.980;2023-05-16T01:44:07;1.38;;;1.00;;
69981;SDS011;57319;56.274;43.980;2023-05-16T01:46:44;4.00;;;1.08;;
69981;SDS011;57319;56.274;43.980;2023-05-16T01:49:24;0.90;;;0.90;;
69981;SDS011;57319;56.274;43.980;2023-05-16T01:52:07;1.80;;;1.27;;
69981;SDS011;57319;56.274;43.980;2023-05-16T01:54:36;2.83;;;0.90;;
69981;SDS011;57319;56.274;43.980;2023-05-16T01:57:04;6.05;;;1.25;;
69981;SDS011;57319;56.274;43.980;2023-05-16T01:59:32;1.33;;;0.95;;
69981;SDS011;57319;56.274;43.980;2023-05-16T02:01:58;0.90;;;0.90;;
69981;SDS011;57319;56.274;43.980;2023-05-16T02:04:25;0.75;;;0.75;;
69981;SDS011;57319;56.274;43.980;2023-05-16T02:06:51;0.90;;;0.90;;
69981;SDS011;57319;56.274;43.980;2023-05-16T02:09:17;1.25;;;1.00;;
69981;SDS011;57319;56.274;43.980;2023-05-16T02:11:42;1.05;;;1.05;;
69981;SDS011;57319;56.274;43.980;2023-05-16T02:14:09;1.95;;;1.30;;
69981;SDS011;57319;56.274;43.980;2023-05-16T02:16:36;2.28;;;2.17;;
69981;SDS011;57319;56.274;43.980;2023-05-16T02:19:02;2.20;;;1.67;;
69981;SDS011;57319;56.274;43.980;2023-05-16T02:21:48;3.50;;;1.85;;
69981;SDS011;57319;56.274;43.980;2023-05-16T02:24:14;11.80;;;5.47;;
69981;SDS011;57319;56.274;43.980;2023-05-16T02:26:40;17.15;;;6.53;;
69981;SDS011;57319;56.274;43.980;2023-05-16T02:29:06;18.15;;;6.43;;
69981;SDS011;57319;56.274;43.980;2023-05-16T02:31:32;17.08;;;5.88;;
69981;SDS011;57319;56.274;43.980;2023-05-16T02:34:00;31.20;;;7.18;;
69981;SDS011;57319;56.274;43.980;2023-05-16T02:36:27;21.80;;;8.70;;
69981;SDS011;57319;56.274;43.980;2023-05-16T02:38:53;18.95;;;8.57;;
69981;SDS011;57319;56.274;43.980;2023-05-16T02:41:19;28.35;;;8.23;;
69981;SDS011;57319;56.274;43.980;2023-05-16T02:43:46;21.20;;;6.72;;
69981;SDS011;57319;56.274;43.980;2023-05-16T02:46:29;14.70;;;7.40;;
69981;SDS011;57319;56.274;43.980;2023-05-16T02:48:55;12.30;;;4.22;;
69981;SDS011;57319;56.274;43.980;2023-05-16T02:51:23;18.58;;;5.03;;
69981;SDS011;57319;56.274;43.980;2023-05-16T02:53:50;6.38;;;1.70;;
69981;SDS011;57319;56.274;43.980;2023-05-16T02:56:17;1.60;;;1.50;;
69981;SDS011;57319;56.274;43.980;2023-05-16T02:58:45;10.90;;;1.70;;
69981;SDS011;57319;56.274;43.980;2023-05-16T03:01:12;3.72;;;1.70;;
69981;SDS011;57319;56.274;43.980;2023-05-16T03:03:39;4.05;;;1.17;;
69981;SDS011;57319;56.274;43.980;2023-05-16T03:06:05;4.60;;;0.80;;
69981;SDS011;57319;56.274;43.980;2023-05-16T03:08:31;1.00;;;1.00;;
69981;SDS011;57319;56.274;43.980;2023-05-16T03:10:57;5.63;;;0.90;;
69981;SDS011;57319;56.274;43.980;2023-05-16T03:13:23;4.00;;;1.42;;
69981;SDS011;57319;56.274;43.980;2023-05-16T03:15:48;0.98;;;0.90;;
69981;SDS011;57319;56.274;43.980;2023-05-16T03:18:15;3.80;;;1.35;;
69981;SDS011;57319;56.274;43.980;2023-05-16T03:20:40;1.75;;;1.00;;
69981;SDS011;57319;56.274;43.980;2023-05-16T03:23:06;8.40;;;1.00;;
69981;SDS011;57319;56.274;43.980;2023-05-16T03:25:35;10.77;;;1.40;;
69981;SDS011;57319;56.274;43.980;2023-05-16T03:28:05;4.80;;;1.30;;
69981;SDS011;57319;56.274;43.980;2023-05-16T03:30:34;3.50;;;1.15;;
69981;SDS011;57319;56.274;43.980;2023-05-16T03:33:00;4.15;;;1.13;;
69981;SDS011;57319;56.274;43.980;2023-05-16T03:35:26;3.30;;;1.17;;
69981;SDS011;57319;56.274;43.980;2023-05-16T03:37:53;3.95;;;1.23;;
69981;SDS011;57319;56.274;43.980;2023-05-16T03:40:19;3.83;;;1.15;;
69981;SDS011;57319;56.274;43.980;2023-05-16T03:42:45;14.48;;;1.27;;
69981;SDS011;57319;56.274;43.980;2023-05-16T03:45:11;4.30;;;1.20;;
69981;SDS011;57319;56.274;43.980;2023-05-16T03:47:37;6.47;;;1.13;;
69981;SDS011;57319;56.274;43.980;2023-05-16T03:50:03;4.75;;;1.00;;
69981;SDS011;57319;56.274;43.980;2023-05-16T03:52:30;3.40;;;1.30;;
69981;SDS011;57319;56.274;43.980;2023-05-16T03:54:55;5.38;;;1.40;;
69981;SDS011;57319;56.274;43.980;2023-05-16T03:57:21;4.85;;;1.10;;
69981;SDS011;57319;56.274;43.980;2023-05-16T03:59:47;3.20;;;1.15;;
69981;SDS011;57319;56.274;43.980;2023-05-16T04:02:13;3.15;;;1.27;;
69981;SDS011;57319;56.274;43.980;2023-05-16T04:04:38;1.05;;;1.02;;
69981;SDS011;57319;56.274;43.980;2023-05-16T04:07:04;5.20;;;1.20;;
69981;SDS011;57319;56.274;43.980;2023-05-16T04:09:30;4.10;;;1.02;;
69981;SDS011;57319;56.274;43.980;2023-05-16T04:11:57;7.90;;;1.35;;
69981;SDS011;57319;56.274;43.980;2023-05-16T04:14:25;3.70;;;1.30;;
69981;SDS011;57319;56.274;43.980;2023-05-16T04:16:51;8.27;;;1.27;;
69981;SDS011;57319;56.274;43.980;2023-05-16T04:19:17;6.22;;;1.23;;
69981;SDS011;57319;56.274;43.980;2023-05-16T04:21:42;2.30;;;0.90;;
69981;SDS011;57319;56.274;43.980;2023-05-16T04:24:08;4.80;;;1.25;;
69981;SDS011;57319;56.274;43.980;2023-05-16T04:26:35;1.48;;;0.90;;
69981;SDS011;57319;56.274;43.980;2023-05-16T04:29:02;3.75;;;1.05;;
69981;SDS011;57319;56.274;43.980;2023-05-16T04:31:28;1.30;;;1.20;;
69981;SDS011;57319;56.274;43.980;2023-05-16T04:33:53;4.57;;;1.17;;
69981;SDS011;57319;56.274;43.980;2023-05-16T04:36:20;3.63;;;1.20;;
69981;SDS011;57319;56.274;43.980;2023-05-16T04:38:46;3.03;;;1.10;;
69981;SDS011;57319;56.274;43.980;2023-05-16T04:41:12;1.42;;;0.85;;
69981;SDS011;57319;56.274;43.980;2023-05-16T04:43:38;1.60;;;0.90;;
69981;SDS011;57319;56.274;43.980;2023-05-16T04:46:04;1.95;;;0.85;;
69981;SDS011;57319;56.274;43.980;2023-05-16T04:48:32;1.40;;;0.98;;
69981;SDS011;57319;56.274;43.980;2023-05-16T04:50:58;5.40;;;0.82;;
69981;SDS011;57319;56.274;43.980;2023-05-16T04:53:24;1.88;;;1.00;;
69981;SDS011;57319;56.274;43.980;2023-05-16T04:55:51;1.15;;;1.15;;
69981;SDS011;57319;56.274;43.980;2023-05-16T04:58:17;2.20;;;1.35;;
69981;SDS011;57319;56.274;43.980;2023-05-16T05:00:43;4.28;;;1.17;;
69981;SDS011;57319;56.274;43.980;2023-05-16T05:03:08;5.90;;;1.55;;
69981;SDS011;57319;56.274;43.980;2023-05-16T05:05:34;17.20;;;1.42;;
69981;SDS011;57319;56.274;43.980;2023-05-16T05:08:00;1.70;;;1.60;;
69981;SDS011;57319;56.274;43.980;2023-05-16T05:10:26;4.30;;;1.40;;
69981;SDS011;57319;56.274;43.980;2023-05-16T05:12:52;2.25;;;1.73;;
69981;SDS011;57319;56.274;43.980;2023-05-16T05:15:18;12.70;;;1.80;;
69981;SDS011;57319;56.274;43.980;2023-05-16T05:17:44;6.85;;;1.10;;
69981;SDS011;57319;56.274;43.980;2023-05-16T05:20:10;13.10;;;1.90;;
69981;SDS011;57319;56.274;43.980;2023-05-16T05:22:36;7.97;;;1.40;;
69981;SDS011;57319;56.274;43.980;2023-05-16T05:25:02;9.30;;;1.48;;
69981;SDS011;57319;56.274;43.980;2023-05-16T05:27:29;2.85;;;1.40;;
69981;SDS011;57319;56.274;43.980;2023-05-16T05:29:55;7.18;;;1.45;;
69981;SDS011;57319;56.274;43.980;2023-05-16T05:32:21;5.88;;;1.67;;
69981;SDS011;57319;56.274;43.980;2023-05-16T05:34:47;2.40;;;1.55;;
69981;SDS011;57319;56.274;43.980;2023-05-16T05:37:12;7.45;;;1.75;;
69981;SDS011;57319;56.274;43.980;2023-05-16T05:39:38;2.03;;;1.20;;
69981;SDS011;57319;56.274;43.980;2023-05-16T05:42:04;4.50;;;1.52;;
69981;SDS011;57319;56.274;43.980;2023-05-16T05:44:30;1.65;;;1.30;;
69981;SDS011;57319;56.274;43.980;2023-05-16T05:46:56;3.80;;;1.40;;
69981;SDS011;57319;56.274;43.980;2023-05-16T05:49:23;2.47;;;1.10;;
69981;SDS011;57319;56.274;43.980;2023-05-16T05:51:49;4.68;;;2.45;;
69981;SDS011;57319;56.274;43.980;2023-05-16T05:54:19;4.00;;;1.52;;
69981;SDS011;57319;56.274;43.980;2023-05-16T05:56:45;4.55;;;1.40;;
69981;SDS011;57319;56.274;43.980;2023-05-16T05:59:11;1.23;;;1.23;;
69981;SDS011;57319;56.274;43.980;2023-05-16T06:01:37;10.00;;;1.73;;
69981;SDS011;57319;56.274;43.980;2023-05-16T06:04:04;2.53;;;1.33;;
69981;SDS011;57319;56.274;43.980;2023-05-16T06:06:30;6.32;;;1.77;;
69981;SDS011;57319;56.274;43.980;2023-05-16T06:08:56;1.40;;;1.30;;
69981;SDS011;57319;56.274;43.980;2023-05-16T06:11:23;1.30;;;1.20;;
69981;SDS011;57319;56.274;43.980;2023-05-16T06:13:52;3.80;;;1.15;;
69981;SDS011;57319;56.274;43.980;2023-05-16T06:16:18;5.35;;;1.13;;
69981;SDS011;57319;56.274;43.980;2023-05-16T06:18:44;5.20;;;1.40;;
69981;SDS011;57319;56.274;43.980;2023-05-16T06:21:10;1.38;;;1.27;;
69981;SDS011;57319;56.274;43.980;2023-05-16T06:23:35;2.78;;;0.77;;
69981;SDS011;57319;56.274;43.980;2023-05-16T06:26:02;3.97;;;1.38;;
69981;SDS011;57319;56.274;43.980;2023-05-16T06:28:28;5.40;;;0.90;;
69981;SDS011;57319;56.274;43.980;2023-05-16T06:30:54;2.15;;;1.05;;
69981;SDS011;57319;56.274;43.980;2023-05-16T06:33:20;3.38;;;0.98;;
69981;SDS011;57319;56.274;43.980;2023-05-16T06:35:45;3.55;;;0.90;;
69981;SDS011;57319;56.274;43.980;2023-05-16T06:38:13;1.50;;;1.50;;
69981;SDS011;57319;56.274;43.980;2023-05-16T06:40:39;1.05;;;1.05;;
69981;SDS011;57319;56.274;43.980;2023-05-16T06:43:05;1.45;;;1.13;;
69981;SDS011;57319;56.274;43.980;2023-05-16T06:45:31;2.63;;;0.82;;
69981;SDS011;57319;56.274;43.980;2023-05-16T06:47:57;2.95;;;0.98;;
69981;SDS011;57319;56.274;43.980;2023-05-16T06:50:22;1.58;;;0.90;;
69981;SDS011;57319;56.274;43.980;2023-05-16T06:52:48;1.95;;;0.98;;
69981;SDS011;57319;56.274;43.980;2023-05-16T06:55:14;1.10;;;1.02;;
69981;SDS011;57319;56.274;43.980;2023-05-16T06:57:40;2.13;;;1.17;;
69981;SDS011;57319;56.274;43.980;2023-05-16T07:00:06;2.75;;;1.20;;
69981;SDS011;57319;56.274;43.980;2023-05-16T07:02:34;1.30;;;1.20;;
69981;SDS011;57319;56.274;43.980;2023-05-16T07:05:00;1.08;;;1.08;;
69981;SDS011;57319;56.274;43.980;2023-05-16T07:07:26;1.45;;;1.02;;
69981;SDS011;57319;56.274;43.980;2023-05-16T07:09:51;5.00;;;1.00;;
69981;SDS011;57319;56.274;43.980;2023-05-16T07:12:17;3.70;;;1.15;;
69981;SDS011;57319;56.274;43.980;2023-05-16T07:14:43;2.50;;;1.00;;
69981;SDS011;57319;56.274;43.980;2023-05-16T07:17:09;5.25;;;1.75;;
69981;SDS011;57319;56.274;43.980;2023-05-16T07:19:35;1.35;;;1.00;;
69981;SDS011;57319;56.274;43.980;2023-05-16T07:22:01;2.55;;;1.23;;
69981;SDS011;57319;56.274;43.980;2023-05-16T07:24:27;2.65;;;1.63;;
69981;SDS011;57319;56.274;43.980;2023-05-16T07:26:52;2.92;;;0.90;;
69981;SDS011;57319;56.274;43.980;2023-05-16T07:29:18;2.83;;;1.25;;
69981;SDS011;57319;56.274;43.980;2023-05-16T07:31:44;1.02;;;1.00;;
69981;SDS011;57319;56.274;43.980;2023-05-16T07:34:10;5.50;;;1.23;;
69981;SDS011;57319;56.274;43.980;2023-05-16T07:36:36;1.27;;;1.10;;
69981;SDS011;57319;56.274;43.980;2023-05-16T07:39:02;3.95;;;1.50;;
69981;SDS011;57319;56.274;43.980;2023-05-16T07:41:29;7.38;;;2.25;;
69981;SDS011;57319;56.274;43.980;2023-05-16T07:43:55;2.67;;;1.40;;
69981;SDS011;57319;56.274;43.980;2023-05-16T07:46:21;1.55;;;1.48;;
69981;SDS011;57319;56.274;43.980;2023-05-16T07:48:47;6.13;;;1.10;;
69981;SDS011;57319;56.274;43.980;2023-05-16T07:51:13;2.03;;;0.90;;
69981;SDS011;57319;56.274;43.980;2023-05-16T07:53:39;0.98;;;0.98;;
69981;SDS011;57319;56.274;43.980;2023-05-16T07:56:05;4.22;;;1.20;;
69981;SDS011;57319;56.274;43.980;2023-05-16T07:58:31;7.75;;;1.20;;
69981;SDS011;57319;56.274;43.980;2023-05-16T08:00:57;1.48;;;1.10;;
69981;SDS011;57319;56.274;43.980;2023-05-16T08:03:23;1.77;;;1.20;;
69981;SDS011;57319;56.274;43.980;2023-05-16T08:05:49;7.13;;;1.48;;
69981;SDS011;57319;56.274;43.980;2023-05-16T08:08:16;5.55;;;1.10;;
69981;SDS011;57319;56.274;43.980;2023-05-16T08:10:41;7.38;;;1.38;;
69981;SDS011;57319;56.274;43.980;2023-05-16T08:13:07;3.45;;;1.40;;
69981;SDS011;57319;56.274;43.980;2023-05-16T08:15:34;1.52;;;1.42;;
69981;SDS011;57319;56.274;43.980;2023-05-16T08:18:00;14.70;;;1.52;;
69981;SDS011;57319;56.274;43.980;2023-05-16T08:20:26;8.20;;;1.30;;
69981;SDS011;57319;56.274;43.980;2023-05-16T08:22:52;2.83;;;1.40;;
69981;SDS011;57319;56.274;43.980;2023-05-16T08:25:19;4.20;;;1.30;;
69981;SDS011;57319;56.274;43.980;2023-05-16T08:27:47;1.70;;;1.60;;
69981;SDS011;57319;56.274;43.980;2023-05-16T08:30:14;5.55;;;1.50;;
69981;SDS011;57319;56.274;43.980;2023-05-16T08:32:39;12.20;;;1.65;;
69981;SDS011;57319;56.274;43.980;2023-05-16T08:35:13;14.25;;;1.50;;
69981;SDS011;57319;56.274;43.980;2023-05-16T08:37:39;13.10;;;1.60;;
69981;SDS011;57319;56.274;43.980;2023-05-16T08:40:05;1.83;;;1.30;;
69981;SDS011;57319;56.274;43.980;2023-05-16T08:42:33;1.88;;;1.25;;
69981;SDS011;57319;56.274;43.980;2023-05-16T08:44:59;3.03;;;1.17;;
69981;SDS011;57319;56.274;43.980;2023-05-16T08:47:25;2.85;;;1.20;;
69981;SDS011;57319;56.274;43.980;2023-05-16T08:49:54;1.42;;;1.33;;
69981;SDS011;57319;56.274;43.980;2023-05-16T08:52:22;4.43;;;1.20;;
69981;SDS011;57319;56.274;43.980;2023-05-16T08:54:54;7.75;;;1.58;;
69981;SDS011;57319;56.274;43.980;2023-05-16T08:57:25;6.35;;;1.95;;
69981;SDS011;57319;56.274;43.980;2023-05-16T08:59:53;3.58;;;1.45;;
69981;SDS011;57319;56.274;43.980;2023-05-16T09:02:21;6.60;;;1.42;;
69981;SDS011;57319;56.274;43.980;2023-05-16T09:04:47;3.55;;;1.45;;
69981;SDS011;57319;56.274;43.980;2023-05-16T09:07:13;12.10;;;1.60;;
69981;SDS011;57319;56.274;43.980;2023-05-16T09:09:40;1.55;;;1.48;;
69981;SDS011;57319;56.274;43.980;2023-05-16T09:12:06;3.33;;;1.40;;
69981;SDS011;57319;56.274;43.980;2023-05-16T09:14:32;1.67;;;1.65;;
69981;SDS011;57319;56.274;43.980;2023-05-16T09:17:05;20.30;;;2.42;;
69981;SDS011;57319;56.274;43.980;2023-05-16T09:19:38;4.50;;;1.70;;
69981;SDS011;57319;56.274;43.980;2023-05-16T09:22:06;2.70;;;1.57;;
69981;SDS011;57319;56.274;43.980;2023-05-16T09:24:37;3.75;;;1.70;;
69981;SDS011;57319;56.274;43.980;2023-05-16T09:27:11;3.03;;;1.70;;
69981;SDS011;57319;56.274;43.980;2023-05-16T09:29:42;1.98;;;1.80;;
69981;SDS011;57319;56.274;43.980;2023-05-16T09:34:38;4.32;;;1.52;;
69981;SDS011;57319;56.274;43.980;2023-05-16T09:37:15;1.77;;;1.60;;
69981;SDS011;57319;56.274;43.980;2023-05-16T09:39:48;3.28;;;2.00;;
69981;SDS011;57319;56.274;43.980;2023-05-16T09:42:16;2.05;;;1.95;;
69981;SDS011;57319;56.274;43.980;2023-05-16T09:44:50;3.92;;;1.50;;
69981;SDS011;57319;56.274;43.980;2023-05-16T09:47:19;4.40;;;1.65;;
69981;SDS011;57319;56.274;43.980;2023-05-16T09:49:46;1.63;;;1.35;;
69981;SDS011;57319;56.274;43.980;2023-05-16T09:52:16;1.45;;;1.45;;
69981;SDS011;57319;56.274;43.980;2023-05-16T09:54:44;9.35;;;1.63;;
69981;SDS011;57319;56.274;43.980;2023-05-16T09:57:16;2.20;;;1.40;;
69981;SDS011;57319;56.274;43.980;2023-05-16T09:59:44;1.50;;;1.40;;
69981;SDS011;57319;56.274;43.980;2023-05-16T10:02:10;1.77;;;1.52;;
69981;SDS011;57319;56.274;43.980;2023-05-16T10:04:37;1.65;;;1.60;;
69981;SDS011;57319;56.274;43.980;2023-05-16T10:07:03;2.67;;;1.90;;
69981;SDS011;57319;56.274;43.980;2023-05-16T10:09:34;2.08;;;1.80;;
69981;SDS011;57319;56.274;43.980;2023-05-16T10:12:01;1.70;;;1.60;;
69981;SDS011;57319;56.274;43.980;2023-05-16T10:14:31;16.42;;;1.80;;
69981;SDS011;57319;56.274;43.980;2023-05-16T10:17:00;3.15;;;1.60;;
69981;SDS011;57319;56.274;43.980;2023-05-16T10:19:31;1.52;;;1.42;;
69981;SDS011;57319;56.274;43.980;2023-05-16T10:22:03;1.50;;;1.50;;
69981;SDS011;57319;56.274;43.980;2023-05-16T10:24:35;3.72;;;1.63;;
69981;SDS011;57319;56.274;43.980;2023-05-16T10:27:21;1.58;;;1.48;;
69981;SDS011;57319;56.274;43.980;2023-05-16T10:29:49;1.67;;;1.50;;
69981;SDS011;57319;56.274;43.980;2023-05-16T10:32:15;5.97;;;1.40;;
69981;SDS011;57319;56.274;43.980;2023-05-16T10:34:42;4.03;;;1.52;;
69981;SDS011;57319;56.274;43.980;2023-05-16T10:37:10;1.38;;;1.38;;
69981;SDS011;57319;56.274;43.980;2023-05-16T10:39:36;3.47;;;1.63;;
69981;SDS011;57319;56.274;43.980;2023-05-16T10:42:05;1.58;;;1.58;;
69981;SDS011;57319;56.274;43.980;2023-05-16T10:44:31;1.50;;;1.50;;
69981;SDS011;57319;56.274;43.980;2023-05-16T10:46:58;9.13;;;1.75;;
69981;SDS011;57319;56.274;43.980;2023-05-16T10:49:25;2.85;;;1.77;;
69981;SDS011;57319;56.274;43.980;2023-05-16T10:54:37;6.03;;;1.83;;
69981;SDS011;57319;56.274;43.980;2023-05-16T10:57:08;2.53;;;1.50;;
69981;SDS011;57319;56.274;43.980;2023-05-16T10:59:46;5.00;;;1.45;;
69981;SDS011;57319;56.274;43.980;2023-05-16T11:02:23;4.47;;;1.67;;
69981;SDS011;57319;56.274;43.980;2023-05-16T11:04:57;8.35;;;1.83;;
69981;SDS011;57319;56.274;43.980;2023-05-16T11:07:25;9.10;;;2.15;;
69981;SDS011;57319;56.274;43.980;2023-05-16T11:10:03;5.13;;;1.60;;
69981;SDS011;57319;56.274;43.980;2023-05-16T11:12:37;1.85;;;1.77;;
69981;SDS011;57319;56.274;43.980;2023-05-16T11:15:20;1.50;;;1.50;;
69981;SDS011;57319;56.274;43.980;2023-05-16T11:18:02;7.22;;;1.90;;
69981;SDS011;57319;56.274;43.980;2023-05-16T11:20:38;1.95;;;1.90;;
69981;SDS011;57319;56.274;43.980;2023-05-16T11:25:45;2.53;;;1.40;;
69981;SDS011;57319;56.274;43.980;2023-05-16T11:28:19;4.75;;;1.60;;
69981;SDS011;57319;56.274;43.980;2023-05-16T11:30:49;5.60;;;1.90;;
69981;SDS011;57319;56.274;43.980;2023-05-16T11:33:17;1.50;;;1.40;;
69981;SDS011;57319;56.274;43.980;2023-05-16T11:35:43;1.60;;;1.50;;
69981;SDS011;57319;56.274;43.980;2023-05-16T11:38:31;5.10;;;1.65;;
69981;SDS011;57319;56.274;43.980;2023-05-16T11:41:02;6.07;;;1.67;;
69981;SDS011;57319;56.274;43.980;2023-05-16T11:43:41;1.90;;;1.30;;
69981;SDS011;57319;56.274;43.980;2023-05-16T11:46:10;7.93;;;1.90;;
69981;SDS011;57319;56.274;43.980;2023-05-16T11:48:39;5.45;;;1.55;;
69981;SDS011;57319;56.274;43.980;2023-05-16T11:51:05;3.03;;;1.80;;
69981;SDS011;57319;56.274;43.980;2023-05-16T11:53:31;1.48;;;1.35;;
69981;SDS011;57319;56.274;43.980;2023-05-16T11:55:58;15.98;;;1.70;;
69981;SDS011;57319;56.274;43.980;2023-05-16T11:58:25;1.70;;;1.60;;
69981;SDS011;57319;56.274;43.980;2023-05-16T12:00:51;6.13;;;1.40;;
69981;SDS011;57319;56.274;43.980;2023-05-16T12:03:17;4.85;;;1.50;;
69981;SDS011;57319;56.274;43.980;2023-05-16T12:05:54;1.65;;;1.65;;
69981;SDS011;57319;56.274;43.980;2023-05-16T12:08:22;4.75;;;1.58;;
69981;SDS011;57319;56.274;43.980;2023-05-16T12:10:49;4.00;;;1.77;;
69981;SDS011;57319;56.274;43.980;2023-05-16T12:13:20;1.33;;;1.33;;
69981;SDS011;57319;56.274;43.980;2023-05-16T12:15:47;4.22;;;1.83;;
69981;SDS011;57319;56.274;43.980;2023-05-16T12:18:14;1.75;;;1.65;;
69981;SDS011;57319;56.274;43.980;2023-05-16T12:20:41;1.58;;;1.50;;
69981;SDS011;57319;56.274;43.980;2023-05-16T12:23:11;6.53;;;1.77;;
69981;SDS011;57319;56.274;43.980;2023-05-16T12:25:38;2.15;;;1.60;;
69981;SDS011;57319;56.274;43.980;2023-05-16T12:28:11;2.92;;;1.52;;
69981;SDS011;57319;56.274;43.980;2023-05-16T12:30:39;2.83;;;1.70;;
69981;SDS011;57319;56.274;43.980;2023-05-16T12:33:12;4.57;;;1.50;;
69981;SDS011;57319;56.274;43.980;2023-05-16T12:35:40;4.07;;;1.73;;
69981;SDS011;57319;56.274;43.980;2023-05-16T12:38:10;1.77;;;1.67;;
69981;SDS011;57319;56.274;43.980;2023-05-16T12:40:38;1.42;;;1.35;;
69981;SDS011;57319;56.274;43.980;2023-05-16T12:43:15;2.67;;;2.03;;
69981;SDS011;57319;56.274;43.980;2023-05-16T12:45:54;10.05;;;2.05;;
69981;SDS011;57319;56.274;43.980;2023-05-16T12:48:21;7.10;;;1.80;;
69981;SDS011;57319;56.274;43.980;2023-05-16T12:50:48;1.50;;;1.40;;
69981;SDS011;57319;56.274;43.980;2023-05-16T12:53:15;6.18;;;1.60;;
69981;SDS011;57319;56.274;43.980;2023-05-16T12:55:42;2.63;;;1.70;;
69981;SDS011;57319;56.274;43.980;2023-05-16T12:58:08;2.28;;;1.55;;
69981;SDS011;57319;56.274;43.980;2023-05-16T13:00:35;3.38;;;1.70;;
69981;SDS011;57319;56.274;43.980;2023-05-16T13:03:02;3.45;;;1.55;;
69981;SDS011;57319;56.274;43.980;2023-05-16T13:05:29;3.85;;;2.22;;
69981;SDS011;57319;56.274;43.980;2023-05-16T13:07:55;3.75;;;1.67;;
69981;SDS011;57319;56.274;43.980;2023-05-16T13:10:21;6.88;;;1.90;;
69981;SDS011;57319;56.274;43.980;2023-05-16T13:12:47;1.58;;;1.58;;
69981;SDS011;57319;56.274;43.980;2023-05-16T13:15:13;5.30;;;1.85;;
69981;SDS011;57319;56.274;43.980;2023-05-16T13:17:40;2.10;;;2.00;;
69981;SDS011;57319;56.274;43.980;2023-05-16T13:20:08;2.65;;;1.70;;
69981;SDS011;57319;56.274;43.980;2023-05-16T13:22:37;1.67;;;1.65;;
69981;SDS011;57319;56.274;43.980;2023-05-16T13:25:04;3.78;;;1.48;;
69981;SDS011;57319;56.274;43.980;2023-05-16T13:27:32;4.72;;;2.00;;
69981;SDS011;57319;56.274;43.980;2023-05-16T13:29:58;3.08;;;1.52;;
69981;SDS011;57319;56.274;43.980;2023-05-16T13:32:25;5.45;;;1.63;;
69981;SDS011;57319;56.274;43.980;2023-05-16T13:34:51;3.97;;;1.58;;
69981;SDS011;57319;56.274;43.980;2023-05-16T13:37:17;3.47;;;1.80;;
69981;SDS011;57319;56.274;43.980;2023-05-16T13:39:43;6.68;;;1.58;;
69981;SDS011;57319;56.274;43.980;2023-05-16T13:42:10;5.43;;;1.65;;
69981;SDS011;57319;56.274;43.980;2023-05-16T13:44:36;2.47;;;2.35;;
69981;SDS011;57319;56.274;43.980;2023-05-16T13:47:02;6.40;;;2.20;;
69981;SDS011;57319;56.274;43.980;2023-05-16T13:49:28;1.42;;;1.35;;
69981;SDS011;57319;56.274;43.980;2023-05-16T13:51:54;3.55;;;1.40;;
69981;SDS011;57319;56.274;43.980;2023-05-16T13:54:20;7.38;;;1.40;;
69981;SDS011;57319;56.274;43.980;2023-05-16T13:56:48;3.28;;;1.50;;
69981;SDS011;57319;56.274;43.980;2023-05-16T13:59:14;5.38;;;1.70;;
69981;SDS011;57319;56.274;43.980;2023-05-16T14:01:39;1.20;;;1.20;;
69981;SDS011;57319;56.274;43.980;2023-05-16T14:04:06;1.67;;;1.60;;
69981;SDS011;57319;56.274;43.980;2023-05-16T14:06:31;8.85;;;1.73;;
69981;SDS011;57319;56.274;43.980;2023-05-16T14:08:57;5.18;;;1.67;;
69981;SDS011;57319;56.274;43.980;2023-05-16T14:11:23;6.05;;;1.80;;
69981;SDS011;57319;56.274;43.980;2023-05-16T14:13:52;8.90;;;1.60;;
69981;SDS011;57319;56.274;43.980;2023-05-16T14:16:18;3.47;;;1.65;;
69981;SDS011;57319;56.274;43.980;2023-05-16T14:18:44;9.15;;;2.08;;
69981;SDS011;57319;56.274;43.980;2023-05-16T14:21:10;8.05;;;1.88;;
69981;SDS011;57319;56.274;43.980;2023-05-16T14:23:36;2.50;;;1.42;;
69981;SDS011;57319;56.274;43.980;2023-05-16T14:26:01;1.90;;;1.52;;
69981;SDS011;57319;56.274;43.980;2023-05-16T14:28:28;2.75;;;1.30;;
69981;SDS011;57319;56.274;43.980;2023-05-16T14:30:54;3.30;;;1.40;;
69981;SDS011;57319;56.274;43.980;2023-05-16T14:33:20;3.22;;;1.52;;
69981;SDS011;57319;56.274;43.980;2023-05-16T14:35:46;3.95;;;1.42;;
69981;SDS011;57319;56.274;43.980;2023-05-16T14:38:14;1.77;;;1.40;;
69981;SDS011;57319;56.274;43.980;2023-05-16T14:40:40;4.05;;;1.50;;
69981;SDS011;57319;56.274;43.980;2023-05-16T14:43:06;1.58;;;1.45;;
69981;SDS011;57319;56.274;43.980;2023-05-16T14:45:32;4.28;;;1.40;;
69981;SDS011;57319;56.274;43.980;2023-05-16T14:47:58;2.15;;;1.40;;
69981;SDS011;57319;56.274;43.980;2023-05-16T14:50:24;3.78;;;1.50;;
69981;SDS011;57319;56.274;43.980;2023-05-16T14:52:49;1.35;;;1.35;;
69981;SDS011;57319;56.274;43.980;2023-05-16T14:55:17;6.22;;;1.63;;